createdAt,value
2019-06-07T00:01:48.047Z,19.70
2019-06-07T00:04:20.836Z,19.70
2019-06-07T00:06:48.325Z,19.70
2019-06-07T00:09:21.783Z,19.70
2019-06-07T00:11:48.565Z,19.70
2019-06-07T00:14:18.841Z,19.70
2019-06-07T00:16:49.021Z,19.60
2019-06-07T00:19:19.082Z,19.60
2019-06-07T00:24:21.710Z,19.60
2019-06-07T00:26:58.200Z,19.50
2019-06-07T00:29:22.011Z,19.50
2019-06-07T00:31:51.540Z,19.50
2019-06-07T00:34:22.989Z,19.40
2019-06-07T00:36:51.826Z,19.40
2019-06-07T00:39:25.139Z,19.30
2019-06-07T00:41:52.114Z,19.30
2019-06-07T00:44:23.262Z,19.30
2019-06-07T00:46:52.433Z,19.40
2019-06-07T00:49:40.085Z,19.40
2019-06-07T00:51:53.796Z,19.40
2019-06-07T00:54:24.982Z,19.40
2019-06-07T00:56:54.573Z,19.40
2019-06-07T00:59:29.319Z,19.50
2019-06-07T01:01:58.255Z,19.50
2019-06-07T01:04:27.564Z,19.50
2019-06-07T01:06:56.832Z,19.50
2019-06-07T01:09:26.371Z,19.50
2019-06-07T01:11:55.978Z,19.50
2019-06-07T01:14:28.384Z,19.50
2019-06-07T01:17:13.302Z,19.50
2019-06-07T01:19:28.011Z,19.50
2019-06-07T01:21:57.537Z,19.40
2019-06-07T01:24:28.058Z,19.40
2019-06-07T01:26:57.621Z,19.40
2019-06-07T01:29:29.501Z,19.40
2019-06-07T01:31:58.286Z,19.50
2019-06-07T01:34:28.938Z,19.50
2019-06-07T01:36:58.549Z,19.40
2019-06-07T01:39:30.998Z,19.40
2019-06-07T01:41:58.930Z,19.40
2019-06-07T01:44:30.741Z,19.40
2019-06-07T01:46:59.689Z,19.40
2019-06-07T01:49:29.742Z,19.40
2019-06-07T01:51:59.495Z,19.30
2019-06-07T01:56:59.963Z,19.20
2019-06-07T01:59:31.669Z,19.20
2019-06-07T02:02:00.364Z,19.20
2019-06-07T02:04:32.881Z,19.20
2019-06-07T02:07:00.757Z,19.10
2019-06-07T02:09:31.918Z,19.10
2019-06-07T02:12:01.355Z,19.00
2019-06-07T02:14:33.235Z,18.90
2019-06-07T02:17:01.720Z,18.90
2019-06-07T02:19:33.265Z,19.00
2019-06-07T02:22:02.430Z,19.00
2019-06-07T02:24:35.330Z,18.90
2019-06-07T02:27:03.260Z,18.90
2019-06-07T02:29:33.681Z,18.80
2019-06-07T02:32:03.183Z,18.80
2019-06-07T02:34:38.738Z,18.90
2019-06-07T02:37:03.498Z,18.90
2019-06-07T02:39:37.567Z,18.90
2019-06-07T02:42:04.447Z,18.90
2019-06-07T02:44:39.156Z,18.90
2019-06-07T02:47:04.832Z,18.90
2019-06-07T02:49:40.877Z,18.90
2019-06-07T02:52:06.813Z,18.90
2019-06-07T02:54:40.081Z,18.90
2019-06-07T02:57:07.725Z,18.70
2019-06-07T03:00:02.861Z,18.60
2019-06-07T03:02:08.078Z,18.60
2019-06-07T03:04:43.997Z,18.80
2019-06-07T03:07:12.850Z,18.90
2019-06-07T03:09:43.181Z,18.90
2019-06-07T03:12:13.485Z,18.80
2019-06-07T03:14:43.719Z,18.70
2019-06-07T03:17:24.137Z,18.70
2019-06-07T03:19:55.695Z,18.70
2019-06-07T03:22:24.953Z,18.80
2019-06-07T03:24:56.037Z,18.80
2019-06-07T03:27:41.534Z,18.80
2019-06-07T03:29:57.013Z,18.70
2019-06-07T03:32:29.210Z,18.70
2019-06-07T03:34:57.623Z,18.80
2019-06-07T03:51:25.288Z,19.00
2019-06-07T03:53:51.658Z,19.00
2019-06-07T03:56:20.989Z,19.00
2019-06-07T03:58:50.710Z,19.00
2019-06-07T04:01:20.131Z,18.90
2019-06-07T04:03:51.782Z,18.90
2019-06-07T04:06:20.529Z,18.90
2019-06-07T04:08:49.828Z,19.00
2019-06-07T04:11:19.211Z,19.00
2019-06-07T04:13:48.497Z,19.10
2019-06-07T04:16:17.848Z,19.00
2019-06-07T04:18:47.122Z,19.00
2019-06-07T04:21:16.417Z,19.00
2019-06-07T04:23:45.971Z,19.00
2019-06-07T04:26:15.314Z,18.90
2019-06-07T04:31:15.833Z,18.80
2019-06-07T04:33:45.132Z,18.80
2019-06-07T04:36:15.088Z,18.80
2019-06-07T04:38:45.485Z,18.80
2019-06-07T04:41:15.630Z,18.90
2019-06-07T04:43:46.199Z,18.90
2019-06-07T04:46:17.861Z,18.90
2019-06-07T04:48:49.636Z,18.90
2019-06-07T04:51:21.561Z,18.80
2019-06-07T04:53:50.898Z,18.70
2019-06-07T04:56:20.187Z,18.80
2019-06-07T04:58:49.488Z,18.90
2019-06-07T05:01:27.313Z,19.00
2019-06-07T05:03:49.875Z,19.00
2019-06-07T05:06:19.203Z,19.00
2019-06-07T05:08:48.590Z,19.00
2019-06-07T05:11:17.871Z,19.00
2019-06-07T05:13:47.166Z,19.00
2019-06-07T05:16:16.809Z,19.00
2019-06-07T05:18:46.122Z,19.10
2019-06-07T05:21:15.533Z,19.10
2019-06-07T05:24:07.524Z,19.00
2019-06-07T05:26:16.187Z,19.00
2019-06-07T05:28:45.515Z,19.00
2019-06-07T05:31:14.810Z,19.10
2019-06-07T05:33:44.160Z,19.00
2019-06-07T05:36:17.586Z,19.00
2019-06-07T05:38:46.921Z,19.10
2019-06-07T05:41:16.193Z,19.10
2019-06-07T05:44:01.884Z,19.10
2019-06-07T05:46:16.692Z,19.30
2019-06-07T05:48:46.349Z,19.30
2019-06-07T05:51:15.620Z,19.40
2019-06-07T05:53:46.000Z,19.40
2019-06-07T05:56:15.792Z,19.50
2019-06-07T05:58:45.408Z,19.50
2019-06-07T06:01:42.120Z,19.40
2019-06-07T06:03:48.070Z,19.40
2019-06-07T06:06:16.766Z,19.30
2019-06-07T06:08:47.935Z,19.30
2019-06-07T06:11:17.117Z,19.20
2019-06-07T06:14:05.276Z,19.20
2019-06-07T06:16:17.467Z,19.20
2019-06-07T06:18:47.715Z,19.20
2019-06-07T06:21:20.254Z,19.20
2019-06-07T06:23:51.910Z,19.30
2019-06-07T06:26:19.904Z,19.30
2019-06-07T06:28:49.811Z,19.20
2019-06-07T06:31:19.283Z,19.30
2019-06-07T06:33:49.847Z,19.40
2019-06-07T06:36:19.786Z,19.40
2019-06-07T06:38:51.314Z,19.50
2019-06-07T06:41:21.006Z,19.60
2019-06-07T06:43:52.619Z,19.70
2019-06-07T06:46:37.915Z,19.70
2019-06-07T06:48:55.287Z,19.80
2019-06-07T06:51:23.914Z,19.80
2019-06-07T06:53:53.297Z,19.80
2019-06-07T06:56:22.593Z,19.80
2019-06-07T07:01:23.807Z,19.80
2019-06-07T07:04:12.180Z,19.80
2019-06-07T07:06:26.720Z,19.90
2019-06-07T07:08:56.329Z,19.80
2019-06-07T07:11:25.617Z,19.80
2019-06-07T07:13:56.890Z,19.90
2019-06-07T07:16:26.304Z,19.90
2019-06-07T07:18:55.653Z,20.00
2019-06-07T07:21:25.250Z,20.00
2019-06-07T07:24:19.586Z,20.00
2019-06-07T07:26:25.901Z,20.10
2019-06-07T07:28:57.612Z,20.10
2019-06-07T07:31:26.619Z,20.10
2019-06-07T07:36:38.904Z,20.10
2019-06-07T07:39:04.498Z,20.10
2019-06-07T07:41:29.135Z,20.20
2019-06-07T07:44:05.948Z,20.30
2019-06-07T07:46:30.292Z,20.20
2019-06-07T07:49:01.365Z,20.20
2019-06-07T07:51:30.758Z,20.30
2019-06-07T07:54:10.104Z,20.30
2019-06-07T07:56:31.821Z,20.30
2019-06-07T07:59:02.523Z,20.30
2019-06-07T08:01:32.378Z,20.40
2019-06-07T08:04:01.763Z,20.40
2019-06-07T08:06:31.352Z,20.40
2019-06-07T08:09:04.347Z,20.50
2019-06-07T08:11:33.791Z,20.50
2019-06-07T08:14:03.123Z,20.60
2019-06-07T08:16:32.755Z,20.50
2019-06-07T08:19:04.228Z,20.60
2019-06-07T08:21:33.419Z,20.60
2019-06-07T08:24:06.062Z,20.60
2019-06-07T08:26:35.508Z,20.60
2019-06-07T08:29:05.111Z,20.60
2019-06-07T08:31:34.492Z,20.60
2019-06-07T08:34:04.178Z,20.60
2019-06-07T08:36:41.868Z,20.70
2019-06-07T08:39:07.856Z,20.80
2019-06-07T08:41:37.740Z,20.80
2019-06-07T08:44:22.650Z,20.80
2019-06-07T08:46:38.147Z,20.90
2019-06-07T08:49:07.574Z,20.90
2019-06-07T08:51:37.002Z,20.90
2019-06-07T08:54:21.714Z,21.00
2019-06-07T08:56:37.797Z,21.10
2019-06-07T08:59:11.520Z,21.10
2019-06-07T09:01:38.256Z,21.30
2019-06-07T09:04:10.901Z,21.30
2019-06-07T09:07:02.440Z,21.50
2019-06-07T09:09:10.048Z,21.60
2019-06-07T09:11:39.408Z,21.60
2019-06-07T09:14:09.354Z,21.70
2019-06-07T09:16:38.903Z,21.80
2019-06-07T09:19:10.901Z,21.90
2019-06-07T09:21:39.283Z,22.00
2019-06-07T09:24:11.548Z,22.00
2019-06-07T09:26:40.328Z,22.10
2019-06-07T09:29:11.880Z,22.20
2019-06-07T09:31:52.585Z,22.20
2019-06-07T09:34:15.108Z,22.20
2019-06-07T09:36:43.648Z,22.20
2019-06-07T09:39:13.159Z,22.20
2019-06-07T09:41:49.757Z,22.30
2019-06-07T09:44:23.707Z,22.30
2019-06-07T09:46:44.937Z,22.40
2019-06-07T09:49:28.960Z,22.40
2019-06-07T09:51:45.956Z,22.30
2019-06-07T09:55:02.458Z,22.10
2019-06-07T09:56:46.515Z,22.10
2019-06-07T09:59:15.893Z,22.10
2019-06-07T10:01:45.299Z,22.10
2019-06-07T10:04:30.285Z,22.10
2019-06-07T10:06:45.773Z,22.10
2019-06-07T10:11:46.522Z,22.40
2019-06-07T10:14:15.991Z,22.60
2019-06-07T10:16:46.608Z,22.70
2019-06-07T10:19:16.376Z,22.80
2019-06-07T10:21:45.678Z,22.90
2019-06-07T10:24:15.323Z,23.00
2019-06-07T10:26:45.294Z,23.00
2019-06-07T10:29:14.664Z,23.10
2019-06-07T10:31:44.033Z,23.20
2019-06-07T10:34:13.457Z,23.30
2019-06-07T10:36:43.204Z,23.40
2019-06-07T10:39:12.614Z,23.50
2019-06-07T10:41:41.954Z,23.50
2019-06-07T10:44:11.512Z,23.40
2019-06-07T10:46:41.002Z,23.40
2019-06-07T10:49:10.323Z,23.30
2019-06-07T10:51:40.010Z,23.20
2019-06-07T10:54:23.439Z,23.20
2019-06-07T10:56:40.398Z,23.20
2019-06-07T10:59:11.759Z,23.10
2019-06-07T11:01:41.257Z,23.00
2019-06-07T11:04:11.720Z,22.90
2019-06-07T11:06:41.403Z,22.90
2019-06-07T11:09:11.974Z,22.90
2019-06-07T11:11:41.439Z,23.00
2019-06-07T11:14:12.641Z,23.10
2019-06-07T11:16:42.112Z,23.20
2019-06-07T11:19:14.447Z,23.20
2019-06-07T11:21:42.440Z,23.30
2019-06-07T11:24:12.380Z,23.40
2019-06-07T11:26:41.784Z,23.40
2019-06-07T11:29:12.720Z,23.50
2019-06-07T11:31:42.137Z,23.60
2019-06-07T11:34:12.505Z,23.60
2019-06-07T11:36:41.870Z,23.60
2019-06-07T11:39:11.250Z,23.50
2019-06-07T11:41:40.904Z,23.60
2019-06-07T11:44:10.956Z,23.60
2019-06-07T11:46:40.357Z,23.60
2019-06-07T11:49:10.873Z,23.60
2019-06-07T11:51:40.746Z,23.70
2019-06-07T11:54:10.091Z,23.70
2019-06-07T11:56:39.385Z,23.70
2019-06-07T11:59:09.008Z,23.60
2019-06-07T12:01:38.299Z,23.70
2019-06-07T12:04:07.653Z,23.80
2019-06-07T12:06:37.039Z,23.80
2019-06-07T12:09:08.544Z,23.80
2019-06-07T12:11:38.337Z,23.80
2019-06-07T12:14:08.717Z,23.90
2019-06-07T12:16:38.389Z,23.90
2019-06-07T12:19:07.726Z,23.90
2019-06-07T12:21:38.893Z,23.80
2019-06-07T12:24:08.298Z,23.80
2019-06-07T12:26:37.803Z,23.90
2019-06-07T12:29:07.074Z,23.80
2019-06-07T12:31:36.388Z,23.90
2019-06-07T12:34:05.657Z,24.00
2019-06-07T12:36:34.986Z,23.90
2019-06-07T12:39:06.077Z,23.90
2019-06-07T12:41:35.802Z,23.90
2019-06-07T12:44:05.578Z,23.90
2019-06-07T12:46:34.999Z,23.90
2019-06-07T12:49:04.438Z,23.90
2019-06-07T12:51:33.754Z,24.00
2019-06-07T12:54:03.166Z,24.00
2019-06-07T12:56:32.572Z,24.10
2019-06-07T12:59:02.019Z,24.00
2019-06-07T13:01:31.380Z,24.10
2019-06-07T13:04:00.650Z,24.10
2019-06-07T13:06:30.014Z,24.10
2019-06-07T13:08:59.357Z,24.20
2019-06-07T13:11:31.574Z,24.20
2019-06-07T13:14:02.461Z,24.30
2019-06-07T13:16:31.948Z,24.30
2019-06-07T13:19:01.428Z,24.30
2019-06-07T13:21:30.827Z,24.30
2019-06-07T13:24:00.201Z,24.30
2019-06-07T13:26:29.549Z,24.40
2019-06-07T13:28:58.850Z,24.40
2019-06-07T13:31:28.182Z,24.40
2019-06-07T13:33:57.501Z,24.50
2019-06-07T13:36:26.827Z,24.50
2019-06-07T13:38:56.170Z,24.50
2019-06-07T13:41:36.581Z,24.50
2019-06-07T13:43:56.547Z,24.50
2019-06-07T13:46:27.075Z,24.60
2019-06-07T13:48:56.658Z,24.60
2019-06-07T13:51:26.957Z,24.70
2019-06-07T13:53:57.269Z,24.80
2019-06-07T13:56:28.238Z,24.80
2019-06-07T13:58:57.694Z,24.80
2019-06-07T14:01:27.264Z,24.80
2019-06-07T14:03:58.007Z,24.90
2019-06-07T14:06:28.095Z,25.00
2019-06-07T14:08:58.441Z,25.10
2019-06-07T14:11:27.964Z,25.00
2019-06-07T14:13:57.347Z,25.00
2019-06-07T14:16:26.653Z,25.00
2019-06-07T14:18:55.935Z,25.10
2019-06-07T14:21:26.569Z,25.10
2019-06-07T14:23:56.025Z,25.10
2019-06-07T14:26:25.453Z,25.10
2019-06-07T14:28:54.738Z,25.10
2019-06-07T14:31:24.621Z,25.10
2019-06-07T14:33:55.468Z,25.20
2019-06-07T14:36:24.863Z,25.20
2019-06-07T14:38:54.418Z,25.20
2019-06-07T14:41:25.190Z,25.30
2019-06-07T14:43:54.683Z,25.30
2019-06-07T14:46:24.042Z,25.30
2019-06-07T14:48:53.419Z,25.30
2019-06-07T14:51:24.122Z,25.30
2019-06-07T14:53:53.568Z,25.30
2019-06-07T14:56:22.890Z,25.30
2019-06-07T14:58:52.194Z,25.30
2019-06-07T15:01:21.593Z,25.40
2019-06-07T15:03:50.923Z,25.40
2019-06-07T15:06:20.313Z,25.50
2019-06-07T15:08:51.516Z,25.60
2019-06-07T15:11:21.025Z,25.60
2019-06-07T15:13:50.420Z,25.60
2019-06-07T15:16:19.778Z,25.60
2019-06-07T15:18:49.124Z,25.60
2019-06-07T15:21:18.428Z,25.60
2019-06-07T15:23:48.027Z,25.60
2019-06-07T15:26:17.460Z,25.60
2019-06-07T15:28:46.773Z,25.60
2019-06-07T15:31:16.152Z,25.60
2019-06-07T15:33:45.534Z,25.60
2019-06-07T15:36:14.869Z,25.70
2019-06-07T15:38:44.328Z,25.70
2019-06-07T15:41:13.659Z,25.80
2019-06-07T15:43:43.130Z,25.80
2019-06-07T15:46:12.754Z,25.80
2019-06-07T15:48:42.411Z,25.80
2019-06-07T15:51:12.015Z,25.90
2019-06-07T15:53:44.563Z,25.90
2019-06-07T15:56:12.391Z,25.90
2019-06-07T15:58:41.702Z,25.90
2019-06-07T16:01:11.062Z,25.90
2019-06-07T16:03:41.958Z,25.90
2019-06-07T16:06:11.483Z,26.00
2019-06-07T16:08:40.827Z,26.00
2019-06-07T16:11:10.618Z,26.10
2019-06-07T16:13:40.799Z,26.10
2019-06-07T16:16:10.227Z,26.10
2019-06-07T16:18:39.769Z,26.10
2019-06-07T16:21:09.547Z,26.10
2019-06-07T16:23:39.833Z,26.10
2019-06-07T16:26:09.205Z,26.10
2019-06-07T16:28:38.774Z,26.10
2019-06-07T16:31:08.126Z,26.20
2019-06-07T16:33:37.403Z,26.20
2019-06-07T16:36:06.686Z,26.30
2019-06-07T16:38:36.325Z,26.30
2019-06-07T16:41:05.946Z,26.40
2019-06-07T16:43:36.461Z,26.40
2019-06-07T16:46:06.471Z,26.50
2019-06-07T16:48:36.796Z,26.50
2019-06-07T16:51:06.278Z,26.60
2019-06-07T16:53:36.146Z,26.60
2019-06-07T16:56:06.206Z,26.60
2019-06-07T16:58:35.540Z,26.60
2019-06-07T17:01:05.382Z,26.60
2019-06-07T17:03:34.759Z,26.80
2019-06-07T17:06:04.864Z,27.00
2019-06-07T17:08:34.349Z,27.10
2019-06-07T17:11:03.801Z,27.10
2019-06-07T17:13:34.072Z,27.30
2019-06-07T17:16:03.565Z,27.30
2019-06-07T17:18:36.840Z,27.30
2019-06-07T17:21:04.318Z,27.20
2019-06-07T17:23:33.637Z,27.10
2019-06-07T17:26:02.972Z,27.00
2019-06-07T17:28:32.537Z,26.80
2019-06-07T17:31:01.989Z,26.80
2019-06-07T17:33:31.305Z,26.80
2019-06-07T17:36:00.589Z,26.80
2019-06-07T17:38:29.958Z,26.70
2019-06-07T17:40:59.307Z,26.70
2019-06-07T17:43:29.153Z,26.70
2019-06-07T17:45:58.450Z,26.70
2019-06-07T17:48:27.725Z,26.60
2019-06-07T17:50:58.254Z,26.60
2019-06-07T17:53:30.446Z,26.60
2019-06-07T17:55:59.029Z,26.50
2019-06-07T17:58:28.457Z,26.50
2019-06-07T18:00:57.737Z,26.50
2019-06-07T18:03:27.098Z,26.50
2019-06-07T18:05:56.410Z,26.50
2019-06-07T18:08:26.115Z,26.40
2019-06-07T18:10:55.798Z,26.40
2019-06-07T18:13:25.229Z,26.40
2019-06-07T18:15:59.002Z,26.40
2019-06-07T18:18:25.597Z,26.40
2019-06-07T18:20:55.645Z,26.30
2019-06-07T18:23:25.273Z,26.30
2019-06-07T18:25:54.827Z,26.30
2019-06-07T18:28:24.299Z,26.40
2019-06-07T18:30:54.909Z,26.40
2019-06-07T18:33:24.527Z,26.60
2019-06-07T18:35:55.212Z,27.00
2019-06-07T18:38:24.616Z,27.40
2019-06-07T18:40:55.371Z,27.70
2019-06-07T18:43:24.884Z,27.60
2019-06-07T18:45:55.971Z,27.30
2019-06-07T18:48:25.479Z,27.00
2019-06-07T18:50:54.855Z,26.70
2019-06-07T18:53:24.145Z,26.50
2019-06-07T18:55:54.009Z,26.30
2019-06-07T18:58:23.691Z,26.20
2019-06-07T19:00:53.810Z,26.10
2019-06-07T19:03:23.182Z,26.00
2019-06-07T19:05:52.553Z,26.00
2019-06-07T19:08:21.856Z,25.90
2019-06-07T19:10:51.180Z,25.80
2019-06-07T19:13:20.502Z,25.80
2019-06-07T19:15:49.789Z,25.70
2019-06-07T19:18:19.091Z,25.70
2019-06-07T19:20:50.750Z,25.60
2019-06-07T19:23:19.887Z,25.60
2019-06-07T19:25:50.171Z,25.60
2019-06-07T19:28:20.043Z,25.50
2019-06-07T19:30:50.729Z,25.50
2019-06-07T19:33:20.501Z,25.40
2019-06-07T19:35:51.371Z,25.40
2019-06-07T19:38:21.083Z,25.30
2019-06-07T19:40:51.688Z,25.30
2019-06-07T19:43:21.205Z,25.30
2019-06-07T19:45:50.587Z,25.20
2019-06-07T19:48:20.480Z,25.20
2019-06-07T19:50:49.809Z,25.10
2019-06-07T19:53:19.148Z,25.10
2019-06-07T19:55:48.450Z,25.10
2019-06-07T19:58:18.039Z,25.10
2019-06-07T20:00:47.628Z,25.00
2019-06-07T20:03:17.232Z,25.00
2019-06-07T20:05:50.522Z,25.00
2019-06-07T20:08:20.105Z,25.00
2019-06-07T20:10:49.423Z,24.90
2019-06-07T20:13:19.222Z,24.90
2019-06-07T20:15:48.682Z,24.90
2019-06-07T20:18:17.983Z,24.90
2019-06-07T20:20:50.431Z,24.90
2019-06-07T20:23:19.728Z,24.80
2019-06-07T20:25:49.116Z,24.80
2019-06-07T20:28:18.425Z,24.80
2019-06-07T20:30:47.714Z,24.70
2019-06-07T20:33:17.021Z,24.60
2019-06-07T20:35:46.418Z,24.60
2019-06-07T20:38:15.722Z,24.50
2019-06-07T20:40:45.089Z,24.50
2019-06-07T20:43:14.447Z,24.60
2019-06-07T20:45:43.789Z,24.50
2019-06-07T20:48:13.349Z,24.40
2019-06-07T20:50:42.650Z,24.40
2019-06-07T20:53:12.052Z,24.40
2019-06-07T20:55:41.401Z,24.30
2019-06-07T20:58:10.739Z,24.30
2019-06-07T21:00:40.102Z,24.30
2019-06-07T21:03:09.730Z,24.30
2019-06-07T21:05:39.406Z,24.30
2019-06-07T21:08:12.818Z,24.20
2019-06-07T21:10:41.326Z,24.20
2019-06-07T21:13:10.674Z,24.10
2019-06-07T21:15:48.219Z,24.10
2019-06-07T21:18:19.179Z,24.20
2019-06-07T21:20:42.158Z,24.20
2019-06-07T21:23:12.052Z,24.10
2019-06-07T21:25:41.506Z,24.10
2019-06-07T21:28:11.421Z,24.10
2019-06-07T21:30:40.831Z,24.10
2019-06-07T21:33:11.792Z,24.00
2019-06-07T21:35:41.686Z,24.00
2019-06-07T21:38:12.750Z,23.90
2019-06-07T21:40:42.530Z,23.90
2019-06-07T21:43:12.689Z,23.80
2019-06-07T21:45:42.415Z,23.80
2019-06-07T21:48:12.723Z,23.80
2019-06-07T21:50:42.793Z,23.80
2019-06-07T21:53:12.968Z,23.80
2019-06-07T21:55:42.325Z,23.80
2019-06-07T21:58:11.905Z,23.80
2019-06-07T22:01:22.227Z,23.80
2019-06-07T22:03:52.046Z,23.80
2019-06-07T22:06:21.354Z,23.70
2019-06-07T22:08:50.683Z,23.60
2019-06-07T22:11:19.986Z,23.70
2019-06-07T22:13:49.569Z,23.60
2019-06-07T22:16:28.578Z,23.60
2019-06-07T22:18:49.871Z,23.50
2019-06-07T22:21:19.180Z,23.50
2019-06-07T22:23:48.461Z,23.60
2019-06-07T22:26:17.850Z,23.60
2019-06-07T22:28:47.161Z,23.60
2019-06-07T22:31:16.722Z,23.60
2019-06-07T22:33:46.330Z,23.50
2019-06-07T22:36:16.024Z,23.50
2019-06-07T22:38:45.405Z,23.40
2019-06-07T22:41:15.885Z,23.40
2019-06-07T22:43:45.417Z,23.40
2019-06-07T22:46:15.022Z,23.40
2019-06-07T22:48:44.506Z,23.30
2019-06-07T22:51:14.586Z,23.30
2019-06-07T22:53:44.767Z,23.20
2019-06-07T22:56:22.335Z,23.30
2019-06-07T22:58:51.672Z,23.20
2019-06-07T23:01:20.989Z,23.20
2019-06-07T23:03:50.373Z,23.10
2019-06-07T23:06:20.011Z,23.10
2019-06-07T23:08:52.509Z,23.00
2019-06-07T23:11:21.776Z,23.00
2019-06-07T23:13:51.070Z,23.00
2019-06-07T23:16:20.426Z,23.00
2019-06-07T23:18:49.770Z,23.00
2019-06-07T23:21:20.121Z,22.90
2019-06-07T23:23:53.319Z,23.00
2019-06-07T23:26:22.712Z,22.90
2019-06-07T23:28:52.030Z,23.00
2019-06-07T23:31:21.854Z,23.00
2019-06-07T23:33:51.219Z,22.90
2019-06-07T23:36:21.325Z,23.00
2019-06-07T23:38:50.935Z,23.00
2019-06-07T23:41:20.859Z,23.00
2019-06-07T23:43:51.863Z,23.00
2019-06-07T23:46:21.627Z,22.90
2019-06-07T23:48:51.258Z,22.90
2019-06-07T23:51:21.849Z,22.90
2019-06-07T23:53:51.322Z,22.90
2019-06-07T23:56:22.110Z,22.90
2019-06-07T23:58:51.634Z,22.90
